createdAt,value
2023-04-16T00:00:00.187Z,30.54
2023-04-16T00:01:00.127Z,30.53
2023-04-16T00:02:00.263Z,30.53
2023-04-16T00:03:00.318Z,30.56
2023-04-16T00:04:00.545Z,30.54
2023-04-16T00:05:00.298Z,30.56
2023-04-16T00:06:00.321Z,30.50
2023-04-16T00:07:00.224Z,30.52
2023-04-16T00:08:00.269Z,30.52
2023-04-16T00:09:00.274Z,30.47
2023-04-16T00:10:00.347Z,30.50
2023-04-16T00:11:00.340Z,30.53
2023-04-16T00:12:00.346Z,30.49
2023-04-16T00:13:00.348Z,30.52
2023-04-16T00:14:00.346Z,30.54
2023-04-16T00:15:00.341Z,30.53
2023-04-16T00:16:00.335Z,30.61
2023-04-16T00:17:00.404Z,30.61
2023-04-16T00:18:00.361Z,30.63
2023-04-16T00:19:00.353Z,30.66
2023-04-16T00:20:00.358Z,30.67
2023-04-16T00:21:00.366Z,30.70
2023-04-16T00:22:00.373Z,30.74
2023-04-16T00:23:00.379Z,30.77
2023-04-16T00:24:00.455Z,30.77
2023-04-16T00:25:00.383Z,30.79
2023-04-16T00:26:00.423Z,30.81
2023-04-16T00:27:00.410Z,30.82
2023-04-16T00:28:00.420Z,30.82
2023-04-16T00:29:00.486Z,30.82
2023-04-16T00:30:00.433Z,30.75
2023-04-16T00:31:00.402Z,30.74
2023-04-16T00:32:00.368Z,30.71
2023-04-16T00:33:00.454Z,30.66
2023-04-16T00:34:00.348Z,30.61
2023-04-16T00:35:00.398Z,30.66
2023-04-16T00:36:00.372Z,30.61
2023-04-16T00:37:00.404Z,30.62
2023-04-16T00:38:00.425Z,30.62
2023-04-16T00:39:00.378Z,30.62
2023-04-16T00:40:00.389Z,30.62
2023-04-16T00:41:00.347Z,30.63
2023-04-16T00:42:00.339Z,30.60
2023-04-16T00:43:00.353Z,30.60
2023-04-16T00:44:00.519Z,30.64
2023-04-16T00:45:00.317Z,30.62
2023-04-16T00:46:00.350Z,30.64
2023-04-16T00:47:00.338Z,30.65
2023-04-16T00:48:00.755Z,30.62
2023-04-16T00:49:00.307Z,30.63
2023-04-16T00:50:00.275Z,30.60
2023-04-16T00:51:00.289Z,30.64
2023-04-16T00:52:00.307Z,30.64
2023-04-16T00:53:00.384Z,30.64
2023-04-16T00:54:00.267Z,30.65
2023-04-16T00:55:00.308Z,30.63
2023-04-16T00:56:00.293Z,30.64
2023-04-16T00:57:00.289Z,30.66
2023-04-16T00:58:00.259Z,30.70
2023-04-16T00:59:00.300Z,30.74
2023-04-16T01:00:00.260Z,30.73
2023-04-16T01:01:00.256Z,30.73
2023-04-16T01:02:00.398Z,30.77
2023-04-16T01:03:00.437Z,30.77
2023-04-16T01:04:00.390Z,30.75
2023-04-16T01:05:00.296Z,30.84
2023-04-16T01:06:00.296Z,30.83
2023-04-16T01:07:00.270Z,30.84
2023-04-16T01:08:00.386Z,30.85
2023-04-16T01:09:00.275Z,30.88
2023-04-16T01:10:00.303Z,30.88
2023-04-16T01:11:00.324Z,30.94
2023-04-16T01:12:00.294Z,30.93
2023-04-16T01:13:00.301Z,30.96
2023-04-16T01:14:00.310Z,30.98
2023-04-16T01:15:00.359Z,30.97
2023-04-16T01:16:00.361Z,31.00
2023-04-16T01:17:00.333Z,31.02
2023-04-16T01:18:00.408Z,31.04
2023-04-16T01:19:00.301Z,31.05
2023-04-16T01:20:00.359Z,31.03
2023-04-16T01:21:00.366Z,31.08
2023-04-16T01:22:00.367Z,31.10
2023-04-16T01:23:00.886Z,31.12
2023-04-16T01:24:00.382Z,31.11
2023-04-16T01:25:00.389Z,31.12
2023-04-16T01:26:00.356Z,31.12
2023-04-16T01:27:00.431Z,31.10
2023-04-16T01:28:00.418Z,31.14
2023-04-16T01:29:00.383Z,31.09
2023-04-16T01:30:00.373Z,31.12
2023-04-16T01:31:00.454Z,31.12
2023-04-16T01:32:00.442Z,31.16
2023-04-16T01:33:00.505Z,31.15
2023-04-16T01:34:00.480Z,31.09
2023-04-16T01:35:00.523Z,31.09
2023-04-16T01:36:00.419Z,31.10
2023-04-16T01:37:00.422Z,31.07
2023-04-16T01:38:00.407Z,31.05
2023-04-16T01:39:00.406Z,31.02
2023-04-16T01:40:00.461Z,31.07
2023-04-16T01:41:00.421Z,31.02
2023-04-16T01:42:00.438Z,31.05
2023-04-16T01:43:00.427Z,31.02
2023-04-16T01:44:00.444Z,31.05
2023-04-16T01:45:00.447Z,31.05
2023-04-16T01:46:00.455Z,31.05
2023-04-16T01:47:00.571Z,31.05
2023-04-16T01:48:00.555Z,31.07
2023-04-16T01:49:00.517Z,31.07
2023-04-16T01:50:00.502Z,31.09
2023-04-16T01:51:00.489Z,31.10
2023-04-16T01:52:00.543Z,31.11
2023-04-16T01:53:00.511Z,31.14
2023-04-16T01:54:00.562Z,31.15
2023-04-16T01:55:00.596Z,31.15
2023-04-16T01:56:00.638Z,31.19
2023-04-16T01:57:00.606Z,31.23
2023-04-16T01:58:00.553Z,31.26
2023-04-16T01:59:00.633Z,31.25
2023-04-16T02:00:00.654Z,31.29
2023-04-16T02:01:00.741Z,31.28
2023-04-16T02:02:00.767Z,31.26
2023-04-16T02:03:00.835Z,31.27
2023-04-16T02:04:00.829Z,31.28
2023-04-16T02:05:00.733Z,31.30
2023-04-16T02:06:00.706Z,31.30
2023-04-16T02:07:00.708Z,31.30
2023-04-16T02:08:00.704Z,31.28
2023-04-16T02:09:00.732Z,31.29
2023-04-16T02:10:00.752Z,31.30
2023-04-16T02:11:00.798Z,31.31
2023-04-16T02:12:00.735Z,31.31
2023-04-16T02:13:00.822Z,31.30
2023-04-16T02:14:00.780Z,31.32
2023-04-16T02:15:00.862Z,31.34
2023-04-16T02:16:00.809Z,31.34
2023-04-16T02:17:00.788Z,31.34
2023-04-16T02:18:00.906Z,31.37
2023-04-16T02:19:00.849Z,31.40
2023-04-16T02:20:00.848Z,31.37
2023-04-16T02:21:00.908Z,31.37
2023-04-16T02:22:00.890Z,31.37
2023-04-16T02:23:00.899Z,31.33
2023-04-16T02:24:00.909Z,31.31
2023-04-16T02:25:00.940Z,31.34
2023-04-16T02:26:01.041Z,31.31
2023-04-16T02:27:00.952Z,31.31
2023-04-16T02:28:01.027Z,31.30
2023-04-16T02:29:01.022Z,31.27
2023-04-16T02:30:01.056Z,31.29
2023-04-16T02:31:01.060Z,31.27
2023-04-16T02:32:01.158Z,31.26
2023-04-16T02:33:01.167Z,31.25
2023-04-16T02:34:01.103Z,31.20
2023-04-16T02:35:01.164Z,31.21
2023-04-16T02:36:01.132Z,31.19
2023-04-16T02:37:01.175Z,31.18
2023-04-16T02:38:01.195Z,31.20
2023-04-16T02:39:01.246Z,31.19
2023-04-16T02:40:01.261Z,31.22
2023-04-16T02:41:01.230Z,31.19
2023-04-16T02:42:01.303Z,31.15
2023-04-16T02:43:01.279Z,31.18
2023-04-16T02:44:01.314Z,31.18
2023-04-16T02:45:01.336Z,31.18
2023-04-16T02:46:01.442Z,31.19
2023-04-16T02:47:01.487Z,31.18
2023-04-16T02:48:01.444Z,31.21
2023-04-16T02:49:01.469Z,31.20
2023-04-16T02:50:01.471Z,31.20
2023-04-16T02:51:01.509Z,31.21
2023-04-16T02:52:01.478Z,31.21
2023-04-16T02:53:01.597Z,31.22
2023-04-16T02:54:01.579Z,31.19
2023-04-16T02:55:01.552Z,31.20
2023-04-16T02:56:01.566Z,31.18
2023-04-16T02:57:01.611Z,31.18
2023-04-16T02:58:01.630Z,31.22
2023-04-16T02:59:01.670Z,31.24
2023-04-16T03:00:01.665Z,31.21
2023-04-16T03:01:01.834Z,31.20
2023-04-16T03:02:01.722Z,31.22
2023-04-16T03:03:01.886Z,31.20
2023-04-16T03:04:01.784Z,31.21
2023-04-16T03:05:01.731Z,31.23
2023-04-16T03:06:01.777Z,31.22
2023-04-16T03:07:01.933Z,31.24
2023-04-16T03:08:01.818Z,31.20
2023-04-16T03:09:01.834Z,31.24
2023-04-16T03:10:01.890Z,31.27
2023-04-16T03:11:01.859Z,31.27
2023-04-16T03:12:01.878Z,31.24
2023-04-16T03:13:02.008Z,31.26
2023-04-16T03:14:01.942Z,31.27
2023-04-16T03:15:01.944Z,31.27
2023-04-16T03:16:02.085Z,31.29
2023-04-16T03:17:01.984Z,31.28
2023-04-16T03:18:02.133Z,31.28
2023-04-16T03:19:02.071Z,31.29
2023-04-16T03:20:02.058Z,31.29
2023-04-16T03:21:02.076Z,31.31
2023-04-16T03:22:02.096Z,31.31
2023-04-16T03:23:02.106Z,31.30
2023-04-16T03:24:02.149Z,31.30
2023-04-16T03:25:02.152Z,31.34
2023-04-16T03:26:02.243Z,31.33
2023-04-16T03:27:02.183Z,31.34
2023-04-16T03:28:02.201Z,31.36
2023-04-16T03:29:02.246Z,31.36
2023-04-16T03:30:02.312Z,31.36
2023-04-16T03:31:02.349Z,31.35
2023-04-16T03:32:02.300Z,31.39
2023-04-16T03:33:02.367Z,31.38
2023-04-16T03:34:02.387Z,31.39
2023-04-16T03:35:02.382Z,31.39
2023-04-16T03:36:02.433Z,31.40
2023-04-16T03:37:02.458Z,31.40
2023-04-16T03:38:02.401Z,31.43
2023-04-16T03:39:02.450Z,31.37
2023-04-16T03:40:02.465Z,31.39
2023-04-16T03:41:02.459Z,31.38
2023-04-16T03:42:02.558Z,31.38
2023-04-16T03:43:02.509Z,31.36
2023-04-16T03:44:02.509Z,31.40
2023-04-16T03:45:02.568Z,31.36
2023-04-16T03:46:02.572Z,31.35
2023-04-16T03:47:02.624Z,31.30
2023-04-16T03:48:02.604Z,31.30
2023-04-16T03:49:02.619Z,31.33
2023-04-16T03:50:02.635Z,31.33
2023-04-16T03:51:02.658Z,31.33
2023-04-16T03:52:02.716Z,31.32
2023-04-16T03:53:02.726Z,31.30
2023-04-16T03:54:02.713Z,31.28
2023-04-16T03:55:02.782Z,31.31
2023-04-16T03:56:02.783Z,31.34
2023-04-16T03:57:02.790Z,31.36
2023-04-16T03:58:02.772Z,31.36
2023-04-16T03:59:02.799Z,31.35
2023-04-16T04:00:02.888Z,31.35
2023-04-16T04:01:02.884Z,31.39
2023-04-16T04:02:02.965Z,31.38
2023-04-16T04:03:03.077Z,31.40
2023-04-16T04:04:03.018Z,31.37
2023-04-16T04:05:02.981Z,31.42
2023-04-16T04:06:02.952Z,31.38
2023-04-16T04:07:02.940Z,31.44
2023-04-16T04:08:02.986Z,31.41
2023-04-16T04:09:03.050Z,31.38
2023-04-16T04:10:03.080Z,31.40
2023-04-16T04:11:03.045Z,31.41
2023-04-16T04:12:03.046Z,31.37
2023-04-16T04:13:03.099Z,31.43
2023-04-16T04:14:03.103Z,31.44
2023-04-16T04:15:03.204Z,31.39
2023-04-16T04:16:03.152Z,31.46
2023-04-16T04:17:03.123Z,31.47
2023-04-16T04:18:03.174Z,31.50
2023-04-16T04:19:03.155Z,31.51
2023-04-16T04:20:03.226Z,31.52
2023-04-16T04:21:03.224Z,31.56
2023-04-16T04:22:03.235Z,31.56
2023-04-16T04:23:03.230Z,31.53
2023-04-16T04:24:03.289Z,31.55
2023-04-16T04:25:03.279Z,31.57
2023-04-16T04:26:03.312Z,31.59
2023-04-16T04:27:03.358Z,31.60
2023-04-16T04:28:03.295Z,31.59
2023-04-16T04:29:03.309Z,31.59
2023-04-16T04:30:03.415Z,31.58
2023-04-16T04:31:03.356Z,31.54
2023-04-16T04:32:03.433Z,31.56
2023-04-16T04:33:03.453Z,31.53
2023-04-16T04:34:03.415Z,31.53
2023-04-16T04:35:03.444Z,31.53
2023-04-16T04:36:03.475Z,31.51
2023-04-16T04:37:03.532Z,31.51
2023-04-16T04:38:03.539Z,31.43
2023-04-16T04:39:03.535Z,31.41
2023-04-16T04:40:03.583Z,31.37
2023-04-16T04:41:03.623Z,31.38
2023-04-16T04:42:03.571Z,31.33
2023-04-16T04:43:03.558Z,31.29
2023-04-16T04:44:03.562Z,31.28
2023-04-16T04:45:03.582Z,31.25
2023-04-16T04:46:03.665Z,31.20
2023-04-16T04:47:03.591Z,31.17
2023-04-16T04:48:03.589Z,31.19
2023-04-16T04:49:03.620Z,31.18
2023-04-16T04:50:03.597Z,31.16
2023-04-16T04:51:04.987Z,31.12
2023-04-16T04:52:03.715Z,31.10
2023-04-16T04:53:03.626Z,31.14
2023-04-16T04:54:03.605Z,31.14
2023-04-16T04:55:03.658Z,31.11
2023-04-16T04:56:12.286Z,31.10
2023-04-16T04:57:04.632Z,31.14
2023-04-16T04:58:03.606Z,31.15
2023-04-16T04:59:03.644Z,31.20
2023-04-16T05:00:03.597Z,31.14
2023-04-16T05:01:03.672Z,31.19
2023-04-16T05:02:03.670Z,31.22
2023-04-16T05:03:03.684Z,31.22
2023-04-16T05:04:03.650Z,31.24
2023-04-16T05:05:03.634Z,31.23
2023-04-16T05:06:03.547Z,31.24
2023-04-16T05:07:03.571Z,31.24
2023-04-16T05:08:03.542Z,31.22
2023-04-16T05:09:03.546Z,31.22
2023-04-16T05:10:03.515Z,31.20
2023-04-16T05:11:03.586Z,31.21
2023-04-16T05:12:03.518Z,31.19
2023-04-16T05:13:03.513Z,31.21
2023-04-16T05:14:03.511Z,31.15
2023-04-16T05:15:03.556Z,31.18
2023-04-16T05:16:03.491Z,31.14
2023-04-16T05:17:03.609Z,31.18
2023-04-16T05:18:03.545Z,31.10
2023-04-16T05:19:03.529Z,31.13
2023-04-16T05:20:03.455Z,31.11
2023-04-16T05:21:03.426Z,31.06
2023-04-16T05:22:03.473Z,31.07
2023-04-16T05:23:03.424Z,31.07
2023-04-16T05:24:03.431Z,31.07
2023-04-16T05:25:03.453Z,31.05
2023-04-16T05:26:03.380Z,31.09
2023-04-16T05:27:03.396Z,31.04
2023-04-16T05:28:03.373Z,31.02
2023-04-16T05:29:03.406Z,31.06
2023-04-16T05:30:03.438Z,31.03
2023-04-16T05:31:03.433Z,31.03
2023-04-16T05:32:03.371Z,31.02
2023-04-16T05:33:03.365Z,31.02
2023-04-16T05:34:03.381Z,31.00
2023-04-16T05:35:03.346Z,30.98
2023-04-16T05:36:03.361Z,30.96
2023-04-16T05:37:03.368Z,30.97
2023-04-16T05:38:03.335Z,30.97
2023-04-16T05:39:03.378Z,31.00
2023-04-16T05:40:03.354Z,31.01
2023-04-16T05:41:03.333Z,30.97
2023-04-16T05:42:03.436Z,30.98
2023-04-16T05:43:03.347Z,30.98
2023-04-16T05:44:03.328Z,30.98
2023-04-16T05:45:03.375Z,30.95
2023-04-16T05:46:03.421Z,30.97
2023-04-16T05:47:03.368Z,30.95
2023-04-16T05:48:03.338Z,30.95
2023-04-16T05:49:03.452Z,30.92
2023-04-16T05:50:03.335Z,30.91
2023-04-16T05:51:03.363Z,30.86
2023-04-16T05:52:03.357Z,30.90
2023-04-16T05:53:03.336Z,30.90
2023-04-16T05:54:03.308Z,30.93
2023-04-16T05:55:03.448Z,30.87
2023-04-16T05:56:03.340Z,30.89
2023-04-16T05:57:03.352Z,30.87
2023-04-16T05:58:03.316Z,30.85
2023-04-16T05:59:03.289Z,30.83
2023-04-16T06:00:03.282Z,30.82
2023-04-16T06:01:03.320Z,30.87
2023-04-16T06:02:03.333Z,30.83
2023-04-16T06:03:03.455Z,30.85
2023-04-16T06:04:03.393Z,30.88
2023-04-16T06:05:03.324Z,30.83
2023-04-16T06:06:03.366Z,30.87
2023-04-16T06:07:03.307Z,30.89
2023-04-16T06:08:03.273Z,30.92
2023-04-16T06:09:03.238Z,30.89
2023-04-16T06:10:03.282Z,30.92
2023-04-16T06:11:03.263Z,30.94
2023-04-16T06:12:03.312Z,30.87
2023-04-16T06:13:03.346Z,30.90
2023-04-16T06:14:03.303Z,30.91
2023-04-16T06:15:03.319Z,30.93
2023-04-16T06:16:03.407Z,30.92
2023-04-16T06:17:03.369Z,30.94
2023-04-16T06:18:03.514Z,30.92
2023-04-16T06:19:03.490Z,30.95
2023-04-16T06:20:03.559Z,30.96
2023-04-16T06:21:03.586Z,30.95
2023-04-16T06:22:03.646Z,30.90
2023-04-16T06:23:03.717Z,30.92
2023-04-16T06:24:03.746Z,30.93
2023-04-16T06:25:03.805Z,30.94
2023-04-16T06:26:03.886Z,30.90
2023-04-16T06:27:03.964Z,30.92
2023-04-16T06:28:03.987Z,30.95
2023-04-16T06:29:04.082Z,30.94
2023-04-16T06:30:04.127Z,30.90
2023-04-16T06:31:04.280Z,30.93
2023-04-16T06:32:04.254Z,30.90
2023-04-16T06:33:04.347Z,30.95
2023-04-16T06:34:04.370Z,30.92
2023-04-16T06:35:04.455Z,30.95
2023-04-16T06:36:04.484Z,30.94
2023-04-16T06:37:04.565Z,30.98
2023-04-16T06:38:04.682Z,30.97
2023-04-16T06:39:04.739Z,30.95
2023-04-16T06:40:04.921Z,30.97
2023-04-16T06:41:04.787Z,31.00
2023-04-16T06:42:04.880Z,30.97
2023-04-16T06:43:04.924Z,30.96
2023-04-16T06:44:04.996Z,30.96
2023-04-16T06:45:05.028Z,30.96
2023-04-16T06:46:05.103Z,30.92
2023-04-16T06:47:05.345Z,30.91
2023-04-16T06:48:05.255Z,30.91
2023-04-16T06:49:05.219Z,30.91
2023-04-16T06:50:05.257Z,30.87
2023-04-16T06:51:05.395Z,30.88
2023-04-16T06:52:06.049Z,30.87
2023-04-16T06:53:05.463Z,30.89
2023-04-16T06:54:05.459Z,30.86
2023-04-16T06:55:05.506Z,30.87
2023-04-16T06:56:05.561Z,30.82
2023-04-16T06:57:05.601Z,30.80
2023-04-16T06:58:05.631Z,30.82
2023-04-16T06:59:05.702Z,30.79
2023-04-16T07:00:05.720Z,30.79
2023-04-16T07:01:05.789Z,30.78
2023-04-16T07:02:05.902Z,30.73
2023-04-16T07:03:05.926Z,30.69
2023-04-16T07:04:05.953Z,30.69
2023-04-16T07:05:05.943Z,30.65
2023-04-16T07:06:05.987Z,30.66
2023-04-16T07:07:05.998Z,30.63
2023-04-16T07:08:06.021Z,30.64
2023-04-16T07:09:06.082Z,30.58
2023-04-16T07:10:06.081Z,30.59
2023-04-16T07:11:06.097Z,30.61
2023-04-16T07:12:06.133Z,30.52
2023-04-16T07:13:06.169Z,30.52
2023-04-16T07:14:06.219Z,30.53
2023-04-16T07:15:06.176Z,30.51
2023-04-16T07:16:06.255Z,30.52
2023-04-16T07:17:06.239Z,30.47
2023-04-16T07:18:06.350Z,30.47
2023-04-16T07:19:06.283Z,30.46
2023-04-16T07:20:06.359Z,30.40
2023-04-16T07:21:06.365Z,30.36
2023-04-16T07:22:06.368Z,30.35
2023-04-16T07:23:06.370Z,30.31
2023-04-16T07:24:06.402Z,30.26
2023-04-16T07:25:06.447Z,30.17
2023-04-16T07:26:06.409Z,30.14
2023-04-16T07:27:06.419Z,30.12
2023-04-16T07:28:06.449Z,30.06
2023-04-16T07:29:06.467Z,30.02
2023-04-16T07:30:06.467Z,29.98
2023-04-16T07:31:06.484Z,29.92
2023-04-16T07:32:06.532Z,29.93
2023-04-16T07:33:06.504Z,29.88
2023-04-16T07:34:06.483Z,29.86
2023-04-16T07:35:06.561Z,29.84
2023-04-16T07:36:06.567Z,29.82
2023-04-16T07:37:06.534Z,29.77
2023-04-16T07:38:06.626Z,29.76
2023-04-16T07:39:06.550Z,29.72
2023-04-16T07:40:06.615Z,29.70
2023-04-16T07:41:06.613Z,29.65
2023-04-16T07:42:06.612Z,29.64
2023-04-16T07:43:06.623Z,29.63
2023-04-16T07:44:06.620Z,29.60
2023-04-16T07:45:06.624Z,29.58
2023-04-16T07:46:06.700Z,29.52
2023-04-16T07:47:06.760Z,29.50
2023-04-16T07:48:06.670Z,29.48
2023-04-16T07:49:06.654Z,29.45
2023-04-16T07:50:06.661Z,29.44
2023-04-16T07:51:06.664Z,29.38
2023-04-16T07:52:06.673Z,29.39
2023-04-16T07:53:06.680Z,29.38
2023-04-16T07:54:06.649Z,29.35
2023-04-16T07:55:06.702Z,29.33
2023-04-16T07:56:06.702Z,29.32
2023-04-16T07:57:06.740Z,29.34
2023-04-16T07:58:06.656Z,29.35
2023-04-16T07:59:21.214Z,29.34
2023-04-16T08:00:07.653Z,29.37
2023-04-16T08:01:06.656Z,29.38
2023-04-16T08:02:06.802Z,29.36
2023-04-16T08:03:06.959Z,29.35
2023-04-16T08:04:06.703Z,29.34
2023-04-16T08:05:06.860Z,29.33
2023-04-16T08:06:06.595Z,29.34
2023-04-16T08:07:06.696Z,29.31
2023-04-16T08:08:06.613Z,29.29
2023-04-16T08:09:06.605Z,29.30
2023-04-16T08:10:06.550Z,29.25
2023-04-16T08:11:06.604Z,29.26
2023-04-16T08:12:06.575Z,29.27
2023-04-16T08:13:06.548Z,29.26
2023-04-16T08:14:06.550Z,29.28
2023-04-16T08:15:06.558Z,29.26
2023-04-16T08:16:06.565Z,29.27
2023-04-16T08:17:06.533Z,29.28
2023-04-16T08:18:06.568Z,29.29
2023-04-16T08:19:06.515Z,29.28
2023-04-16T08:20:06.562Z,29.27
2023-04-16T08:21:06.505Z,29.27
2023-04-16T08:22:06.509Z,29.29
2023-04-16T08:23:06.583Z,29.28
2023-04-16T08:24:06.606Z,29.27
2023-04-16T08:25:06.648Z,29.24
2023-04-16T08:26:06.745Z,29.23
2023-04-16T08:27:17.759Z,29.20
2023-04-16T08:28:07.792Z,29.22
2023-04-16T08:29:06.760Z,29.20
2023-04-16T08:30:06.777Z,29.17
2023-04-16T08:31:06.837Z,29.17
2023-04-16T08:32:06.737Z,29.16
2023-04-16T08:33:06.737Z,29.15
2023-04-16T08:34:06.755Z,29.16
2023-04-16T08:35:06.694Z,29.12
2023-04-16T08:36:06.764Z,29.13
2023-04-16T08:37:06.916Z,29.10
2023-04-16T08:38:06.883Z,29.10
2023-04-16T08:39:06.937Z,29.10
2023-04-16T08:40:07.006Z,29.06
2023-04-16T08:41:07.065Z,29.08
2023-04-16T08:42:07.051Z,29.04
2023-04-16T08:43:07.258Z,29.01
2023-04-16T08:44:07.187Z,29.01
2023-04-16T08:45:07.238Z,28.99
2023-04-16T08:46:07.338Z,28.97
2023-04-16T08:47:07.303Z,28.99
2023-04-16T08:48:07.359Z,28.96
2023-04-16T08:49:07.508Z,28.97
2023-04-16T08:50:07.406Z,28.94
2023-04-16T08:51:07.491Z,28.92
2023-04-16T08:52:07.522Z,28.94
2023-04-16T08:53:07.541Z,28.88
2023-04-16T08:54:07.608Z,28.87
2023-04-16T08:55:07.666Z,28.85
2023-04-16T08:56:07.646Z,28.86
2023-04-16T08:57:07.712Z,28.81
2023-04-16T08:58:07.732Z,28.80
2023-04-16T08:59:07.934Z,28.79
2023-04-16T09:00:07.847Z,28.77
2023-04-16T09:01:07.907Z,28.77
2023-04-16T09:02:07.914Z,28.76
2023-04-16T09:03:08.089Z,28.76
2023-04-16T09:04:08.111Z,28.73
2023-04-16T09:05:08.031Z,28.72
2023-04-16T09:06:08.043Z,28.73
2023-04-16T09:07:08.031Z,28.70
2023-04-16T09:08:08.113Z,28.69
2023-04-16T09:09:08.467Z,28.66
2023-04-16T09:10:08.182Z,28.66
2023-04-16T09:11:08.174Z,28.67
2023-04-16T09:12:08.237Z,28.65
2023-04-16T09:13:08.231Z,28.63
2023-04-16T09:14:08.253Z,28.62
2023-04-16T09:15:08.288Z,28.60
2023-04-16T09:16:08.346Z,28.61
2023-04-16T09:17:08.315Z,28.59
2023-04-16T09:18:08.315Z,28.57
2023-04-16T09:19:08.542Z,28.55
2023-04-16T09:20:08.381Z,28.55
2023-04-16T09:21:08.415Z,28.53
2023-04-16T09:22:08.408Z,28.52
2023-04-16T09:23:08.402Z,28.50
2023-04-16T09:24:08.464Z,28.45
2023-04-16T09:25:08.464Z,28.45
2023-04-16T09:26:08.470Z,28.40
2023-04-16T09:27:08.540Z,28.38
2023-04-16T09:28:08.667Z,28.34
2023-04-16T09:29:08.759Z,28.30
2023-04-16T09:30:08.536Z,28.28
2023-04-16T09:31:08.613Z,28.25
2023-04-16T09:32:08.741Z,28.23
2023-04-16T09:33:08.620Z,28.23
2023-04-16T09:34:08.605Z,28.17
2023-04-16T09:35:08.640Z,28.18
2023-04-16T09:36:08.633Z,28.16
2023-04-16T09:37:08.649Z,28.14
2023-04-16T09:38:08.787Z,28.14
2023-04-16T09:39:08.820Z,28.09
2023-04-16T09:40:08.782Z,28.05
2023-04-16T09:41:08.764Z,28.04
2023-04-16T09:42:08.756Z,27.99
2023-04-16T09:43:08.766Z,27.95
2023-04-16T09:44:08.720Z,27.96
2023-04-16T09:45:08.728Z,27.92
2023-04-16T09:46:08.828Z,27.92
2023-04-16T09:47:08.783Z,27.90
2023-04-16T09:48:08.821Z,27.93
2023-04-16T09:49:09.169Z,27.91
2023-04-16T09:50:09.611Z,27.91
2023-04-16T09:51:08.816Z,27.90
2023-04-16T09:52:08.862Z,27.92
2023-04-16T09:53:08.832Z,27.91
2023-04-16T09:54:08.848Z,27.92
2023-04-16T09:55:08.947Z,27.92
2023-04-16T09:56:08.895Z,27.91
2023-04-16T09:57:08.872Z,27.91
2023-04-16T09:58:08.923Z,27.88
2023-04-16T09:59:09.152Z,27.87
2023-04-16T10:00:08.951Z,27.89
2023-04-16T10:01:08.931Z,27.90
2023-04-16T10:02:15.298Z,27.88
2023-04-16T10:03:09.988Z,27.89
2023-04-16T10:04:09.037Z,27.88
2023-04-16T10:05:08.948Z,27.88
2023-04-16T10:06:08.932Z,27.87
2023-04-16T10:07:08.938Z,27.87
2023-04-16T10:08:08.890Z,27.86
2023-04-16T10:09:09.121Z,27.87
2023-04-16T10:10:08.873Z,27.86
2023-04-16T10:11:08.840Z,27.86
2023-04-16T10:12:08.867Z,27.85
2023-04-16T10:13:08.854Z,27.83
2023-04-16T10:14:08.869Z,27.81
2023-04-16T10:15:08.865Z,27.79
2023-04-16T10:16:08.819Z,27.81
2023-04-16T10:17:08.933Z,27.80
2023-04-16T10:18:08.842Z,27.77
2023-04-16T10:19:09.199Z,27.76
2023-04-16T10:20:08.789Z,27.79
2023-04-16T10:21:08.821Z,27.80
2023-04-16T10:22:08.815Z,27.75
2023-04-16T10:23:08.758Z,27.78
2023-04-16T10:24:08.780Z,27.77
2023-04-16T10:25:08.939Z,27.75
2023-04-16T10:26:08.906Z,27.76
2023-04-16T10:27:08.955Z,27.77
2023-04-16T10:28:09.059Z,27.74
2023-04-16T10:29:09.286Z,27.76
2023-04-16T10:30:09.112Z,27.75
2023-04-16T10:31:09.229Z,27.76
2023-04-16T10:32:09.229Z,27.75
2023-04-16T10:33:09.358Z,27.75
2023-04-16T10:34:09.348Z,27.75
2023-04-16T10:35:09.417Z,27.76
2023-04-16T10:36:09.460Z,27.77
2023-04-16T10:37:09.549Z,27.78
2023-04-16T10:38:09.575Z,27.78
2023-04-16T10:39:09.777Z,27.82
2023-04-16T10:40:09.812Z,27.86
2023-04-16T10:41:09.715Z,27.85
2023-04-16T10:42:09.837Z,27.87
2023-04-16T10:43:09.879Z,27.88
2023-04-16T10:44:10.055Z,27.90
2023-04-16T10:45:10.006Z,27.89
2023-04-16T10:46:10.123Z,27.91
2023-04-16T10:47:10.116Z,27.88
2023-04-16T10:48:10.246Z,27.89
2023-04-16T10:49:10.431Z,27.87
2023-04-16T10:50:10.340Z,27.84
2023-04-16T10:51:10.366Z,27.88
2023-04-16T10:52:10.457Z,27.83
2023-04-16T10:53:10.505Z,27.82
2023-04-16T10:54:10.572Z,27.81
2023-04-16T10:55:10.603Z,27.81
2023-04-16T10:56:10.685Z,27.80
2023-04-16T10:57:10.785Z,27.78
2023-04-16T10:58:10.808Z,27.75
2023-04-16T10:59:11.114Z,27.78
2023-04-16T11:00:10.913Z,27.77
2023-04-16T11:01:11.072Z,27.78
2023-04-16T11:02:11.119Z,27.78
2023-04-16T11:03:11.222Z,27.80
2023-04-16T11:04:11.321Z,27.78
2023-04-16T11:05:11.250Z,27.79
2023-04-16T11:06:11.292Z,27.79
2023-04-16T11:07:11.368Z,27.80
2023-04-16T11:08:11.429Z,27.80
2023-04-16T11:09:11.574Z,27.78
2023-04-16T11:10:11.526Z,27.78
2023-04-16T11:11:11.601Z,27.78
2023-04-16T11:12:11.641Z,27.77
2023-04-16T11:13:11.813Z,27.79
2023-04-16T11:14:11.775Z,27.78
2023-04-16T11:15:11.893Z,27.81
2023-04-16T11:16:11.922Z,27.85
2023-04-16T11:17:11.977Z,27.84
2023-04-16T11:18:12.056Z,27.87
2023-04-16T11:19:12.210Z,27.88
2023-04-16T11:20:19.413Z,27.89
2023-04-16T11:21:13.144Z,27.91
2023-04-16T11:22:12.116Z,27.92
2023-04-16T11:23:12.128Z,27.86
2023-04-16T11:24:12.097Z,27.87
2023-04-16T11:25:12.103Z,27.83
2023-04-16T11:26:12.109Z,27.80
2023-04-16T11:27:12.124Z,27.76
2023-04-16T11:28:12.136Z,27.73
2023-04-16T11:29:12.122Z,27.70
2023-04-16T11:30:12.155Z,27.67
2023-04-16T11:31:12.217Z,27.68
2023-04-16T11:32:12.256Z,27.64
2023-04-16T11:33:12.308Z,27.65
2023-04-16T11:34:12.370Z,27.62
2023-04-16T11:35:12.438Z,27.62
2023-04-16T11:36:12.498Z,27.63
2023-04-16T11:37:12.532Z,27.60
2023-04-16T11:38:12.605Z,27.61
2023-04-16T11:39:12.903Z,27.60
2023-04-16T11:40:12.717Z,27.60
2023-04-16T11:41:12.734Z,27.61
2023-04-16T11:42:12.892Z,27.63
2023-04-16T11:43:12.893Z,27.63
2023-04-16T11:44:12.952Z,27.62
2023-04-16T11:45:12.993Z,27.61
2023-04-16T11:46:24.565Z,27.63
2023-04-16T11:47:14.107Z,27.63
2023-04-16T11:48:13.069Z,27.63
2023-04-16T11:49:13.252Z,27.63
2023-04-16T11:50:13.062Z,27.62
2023-04-16T11:51:13.042Z,27.62
2023-04-16T11:52:12.993Z,27.62
2023-04-16T11:53:12.973Z,27.61
2023-04-16T11:54:12.966Z,27.61
2023-04-16T11:55:13.033Z,27.61
2023-04-16T11:56:13.087Z,27.60
2023-04-16T11:57:13.119Z,27.61
2023-04-16T11:58:13.197Z,27.62
2023-04-16T11:59:13.525Z,27.61
2023-04-16T12:00:13.354Z,27.61
2023-04-16T12:01:13.423Z,27.62
2023-04-16T12:02:13.497Z,27.64
2023-04-16T12:03:13.745Z,27.65
2023-04-16T12:04:13.660Z,27.65
2023-04-16T12:05:13.666Z,27.64
2023-04-16T12:06:13.674Z,27.66
2023-04-16T12:07:13.729Z,27.66
2023-04-16T12:08:13.762Z,27.68
2023-04-16T12:09:13.851Z,27.68
2023-04-16T12:10:13.930Z,27.67
2023-04-16T12:11:14.009Z,27.69
2023-04-16T12:12:14.031Z,27.71
2023-04-16T12:13:14.132Z,27.68
2023-04-16T12:14:14.117Z,27.69
2023-04-16T12:15:14.221Z,27.70
2023-04-16T12:16:14.311Z,27.68
2023-04-16T12:17:14.324Z,27.66
2023-04-16T12:18:14.413Z,27.71
2023-04-16T12:19:14.464Z,27.69
2023-04-16T12:20:14.521Z,27.65
2023-04-16T12:21:14.655Z,27.61
2023-04-16T12:22:14.644Z,27.62
2023-04-16T12:23:14.699Z,27.64
2023-04-16T12:24:14.782Z,27.62
2023-04-16T12:25:14.800Z,27.54
2023-04-16T12:26:14.872Z,27.52
2023-04-16T12:27:14.884Z,27.53
2023-04-16T12:28:14.990Z,27.50
2023-04-16T12:29:15.035Z,27.46
2023-04-16T12:30:15.113Z,27.49
2023-04-16T12:31:15.144Z,27.47
2023-04-16T12:32:15.273Z,27.47
2023-04-16T12:33:15.186Z,27.46
2023-04-16T12:34:15.271Z,27.46
2023-04-16T12:35:15.278Z,27.47
2023-04-16T12:36:15.279Z,27.48
2023-04-16T12:37:15.290Z,27.47
2023-04-16T12:38:15.368Z,27.50
2023-04-16T12:39:15.380Z,27.47
2023-04-16T12:40:15.374Z,27.50
2023-04-16T12:41:15.390Z,27.49
2023-04-16T12:42:15.436Z,27.48
2023-04-16T12:43:15.445Z,27.51
2023-04-16T12:44:15.512Z,27.48
2023-04-16T12:45:15.523Z,27.52
2023-04-16T12:46:15.606Z,27.57
2023-04-16T12:47:15.577Z,27.53
2023-04-16T12:48:15.623Z,27.55
2023-04-16T12:49:15.603Z,27.58
2023-04-16T12:50:15.597Z,27.60
2023-04-16T12:51:15.610Z,27.62
2023-04-16T12:52:15.625Z,27.61